Aviation Digital Data Service (ADDS)

Output produced by TAFs form (0714 UTC 19 December 2014)
found at http://aviationweather.gov/adds/tafs/
 
KABQ 190535Z 1906/2006 36005KT P6SM FEW040 SCT110 
     FM190900 33005KT P6SM SCT004 SCT150 
     FM191600 32008KT P6SM FEW150